createdAt,value
2023-01-17T00:02:02.925Z,14.45
2023-01-17T00:04:49.005Z,14.32
2023-01-17T00:07:36.777Z,14.82
2023-01-17T00:10:13.379Z,13.77
2023-01-17T00:12:49.801Z,15.07
2023-01-17T00:15:20.173Z,14.80
2023-01-17T00:17:48.832Z,15.35
2023-01-17T00:20:36.463Z,13.63
2023-01-17T00:23:27.811Z,14.85
2023-01-17T00:26:06.279Z,14.43
2023-01-17T00:28:41.247Z,13.98
2023-01-17T00:31:13.505Z,14.10
2023-01-17T00:33:40.930Z,13.88
2023-01-17T00:36:08.952Z,13.02
2023-01-17T00:38:38.695Z,12.95
2023-01-17T00:41:11.885Z,16.35
2023-01-17T00:43:57.416Z,13.18
2023-01-17T00:49:28.747Z,13.80
2023-01-17T00:54:59.896Z,12.57
2023-01-17T00:57:45.441Z,13.23
2023-01-17T01:03:17.086Z,12.63
2023-01-17T01:06:02.757Z,13.70
2023-01-17T01:08:48.848Z,12.32
2023-01-17T01:11:37.511Z,12.82
2023-01-17T01:14:24.973Z,13.35
2023-01-17T01:17:10.956Z,14.30
2023-01-17T01:19:56.769Z,13.52
2023-01-17T01:22:42.569Z,14.55
2023-01-17T01:25:28.440Z,13.90
2023-01-17T01:28:25.649Z,13.93
2023-01-17T01:31:11.904Z,13.68
2023-01-17T01:33:39.280Z,14.38
2023-01-17T01:36:08.441Z,13.35
2023-01-17T01:38:35.605Z,13.75
2023-01-17T01:41:03.520Z,14.35
2023-01-17T01:43:52.287Z,13.88
2023-01-17T01:46:30.430Z,13.73
2023-01-17T01:49:16.988Z,13.55
2023-01-17T01:51:50.360Z,14.32
2023-01-17T01:54:25.188Z,14.05
2023-01-17T01:56:57.441Z,14.13
2023-01-17T01:59:25.503Z,14.57
2023-01-17T02:01:56.111Z,14.82
2023-01-17T02:04:25.171Z,14.77
2023-01-17T02:06:59.210Z,13.73
2023-01-17T02:09:27.443Z,15.63
2023-01-17T02:11:55.142Z,15.38
2023-01-17T02:14:22.957Z,15.13
2023-01-17T02:17:28.325Z,15.80
2023-01-17T02:20:16.212Z,15.07
2023-01-17T02:22:43.467Z,13.75
2023-01-17T02:25:10.526Z,14.02
2023-01-17T02:27:54.436Z,12.77
2023-01-17T02:30:32.501Z,13.88
2023-01-17T02:33:23.503Z,13.18
2023-01-17T02:36:10.385Z,14.43
2023-01-17T02:38:57.779Z,14.10
2023-01-17T02:41:33.661Z,13.07
2023-01-17T02:44:04.483Z,13.82
2023-01-17T02:46:31.574Z,14.70
2023-01-17T02:49:00.644Z,15.25
2023-01-17T02:51:49.167Z,13.57
2023-01-17T02:54:35.416Z,13.43
2023-01-17T02:57:48.937Z,12.88
2023-01-17T03:00:25.513Z,12.82
2023-01-17T03:03:10.627Z,13.70
2023-01-17T03:05:48.745Z,13.00
2023-01-17T03:08:16.888Z,14.75
2023-01-17T03:10:44.904Z,13.75
2023-01-17T03:13:12.042Z,12.77
2023-01-17T03:15:40.421Z,13.00
2023-01-17T03:18:16.223Z,13.40
2023-01-17T03:20:43.371Z,13.60
2023-01-17T03:23:10.729Z,13.23
2023-01-17T03:25:37.779Z,14.10
2023-01-17T03:28:05.278Z,12.90
2023-01-17T03:30:32.402Z,12.77
2023-01-17T03:33:00.400Z,13.35
2023-01-17T03:35:28.656Z,12.70
2023-01-17T03:37:56.694Z,15.05
2023-01-17T03:40:24.007Z,13.90
2023-01-17T03:42:51.262Z,13.70
2023-01-17T03:45:21.367Z,14.55
2023-01-17T03:47:58.927Z,14.57
2023-01-17T03:50:26.468Z,12.77
2023-01-17T03:52:56.006Z,13.50
2023-01-17T03:55:27.380Z,13.82
2023-01-17T03:57:54.813Z,14.60
2023-01-17T04:00:44.550Z,13.75
2023-01-17T04:03:11.761Z,11.32
2023-01-17T04:05:38.904Z,13.88
2023-01-17T04:08:07.467Z,14.48
2023-01-17T04:10:35.611Z,12.90
2023-01-17T04:13:02.708Z,13.68
2023-01-17T04:15:36.511Z,13.63
2023-01-17T04:20:39.716Z,12.70
2023-01-17T04:23:08.194Z,12.32
2023-01-17T04:25:36.169Z,13.57
2023-01-17T04:28:04.459Z,15.02
2023-01-17T04:30:32.823Z,15.05
2023-01-17T04:33:00.240Z,15.32
2023-01-17T04:35:30.285Z,13.38
2023-01-17T04:37:57.688Z,13.02
2023-01-17T04:40:25.326Z,14.75
2023-01-17T04:42:55.443Z,13.52
2023-01-17T04:45:24.001Z,14.07
2023-01-17T04:47:52.351Z,13.55
2023-01-17T04:50:24.819Z,15.35
2023-01-17T04:52:52.433Z,13.30
2023-01-17T04:55:19.554Z,13.35
2023-01-17T04:57:48.404Z,13.68
2023-01-17T05:00:16.134Z,14.40
2023-01-17T05:02:43.478Z,13.70
2023-01-17T05:05:13.452Z,13.57
2023-01-17T05:07:40.862Z,14.13
2023-01-17T05:10:08.661Z,14.90
2023-01-17T05:12:35.788Z,16.05
2023-01-17T05:15:03.334Z,15.05
2023-01-17T05:17:31.711Z,14.55
2023-01-17T05:20:00.265Z,13.40
2023-01-17T05:22:27.624Z,14.35
2023-01-17T05:24:54.742Z,14.77
2023-01-17T05:27:22.102Z,13.68
2023-01-17T05:29:49.229Z,14.43
2023-01-17T05:32:16.630Z,15.88
2023-01-17T05:34:45.873Z,14.02
2023-01-17T05:37:13.302Z,15.52
2023-01-17T05:39:40.480Z,13.40
2023-01-17T05:42:07.901Z,15.05
2023-01-17T05:44:35.174Z,14.15
2023-01-17T05:47:02.683Z,15.20
2023-01-17T05:49:29.848Z,15.35
2023-01-17T05:51:58.250Z,14.45
2023-01-17T05:54:26.065Z,14.88
2023-01-17T05:56:53.646Z,14.95
2023-01-17T05:59:35.955Z,15.38
2023-01-17T06:02:04.065Z,14.40
2023-01-17T06:04:31.254Z,13.77
2023-01-17T06:06:58.552Z,16.17
2023-01-17T06:09:26.030Z,13.95
2023-01-17T06:11:54.354Z,15.70
2023-01-17T06:14:24.279Z,15.68
2023-01-17T06:16:51.395Z,14.70
2023-01-17T06:19:18.805Z,14.40
2023-01-17T06:21:46.114Z,14.45
2023-01-17T06:24:14.236Z,14.45
2023-01-17T06:26:44.238Z,15.02
2023-01-17T06:29:12.253Z,14.98
2023-01-17T06:31:39.600Z,13.23
2023-01-17T06:34:06.813Z,14.80
2023-01-17T06:36:34.646Z,14.10
2023-01-17T06:39:01.867Z,14.90
2023-01-17T06:41:29.318Z,13.88
2023-01-17T06:43:57.069Z,15.10
2023-01-17T06:46:26.007Z,14.68
2023-01-17T06:48:53.382Z,14.77
2023-01-17T06:51:21.190Z,13.73
2023-01-17T06:53:49.733Z,13.50
2023-01-17T06:56:17.402Z,13.20
2023-01-17T06:58:47.492Z,14.52
2023-01-17T07:01:15.294Z,14.57
2023-01-17T07:03:42.952Z,14.38
2023-01-17T07:06:10.389Z,13.90
2023-01-17T07:08:38.204Z,13.48
2023-01-17T07:11:08.987Z,15.57
2023-01-17T07:13:38.265Z,14.55
2023-01-17T07:16:07.623Z,14.15
2023-01-17T07:18:36.035Z,14.32
2023-01-17T07:21:03.347Z,14.73
2023-01-17T07:23:31.177Z,14.48
2023-01-17T07:26:00.493Z,13.77
2023-01-17T07:28:28.756Z,13.48
2023-01-17T07:30:56.536Z,14.77
2023-01-17T07:33:24.287Z,12.40
2023-01-17T07:35:51.656Z,14.85
2023-01-17T07:38:20.351Z,14.45
2023-01-17T07:40:47.584Z,13.93
2023-01-17T07:43:15.260Z,15.10
2023-01-17T07:45:43.939Z,14.98
2023-01-17T07:48:12.394Z,14.60
2023-01-17T07:50:39.843Z,15.50
2023-01-17T07:53:06.940Z,14.60
2023-01-17T07:55:34.095Z,14.63
2023-01-17T07:58:03.077Z,13.05
2023-01-17T08:00:31.187Z,15.20
2023-01-17T08:02:59.839Z,14.70
2023-01-17T08:05:30.968Z,14.65
2023-01-17T08:07:58.099Z,13.70
2023-01-17T08:10:25.347Z,14.50
2023-01-17T08:12:52.632Z,13.48
2023-01-17T08:15:19.734Z,15.40
2023-01-17T08:17:49.322Z,12.43
2023-01-17T08:20:18.101Z,13.85
2023-01-17T08:22:46.322Z,15.55
2023-01-17T08:25:13.789Z,12.45
2023-01-17T08:27:42.394Z,13.82
2023-01-17T08:30:09.987Z,14.23
2023-01-17T08:32:40.834Z,14.18
2023-01-17T08:35:11.960Z,13.45
2023-01-17T08:37:39.660Z,13.88
2023-01-17T08:40:08.852Z,13.75
2023-01-17T08:42:39.612Z,14.05
2023-01-17T08:45:08.867Z,12.52
2023-01-17T08:47:38.136Z,12.18
2023-01-17T08:50:07.165Z,11.95
2023-01-17T08:52:34.941Z,12.52
2023-01-17T08:55:02.682Z,11.80
2023-01-17T08:57:32.162Z,12.15
2023-01-17T08:59:59.467Z,13.57
2023-01-17T09:02:27.105Z,12.75
2023-01-17T09:04:54.573Z,13.90
2023-01-17T09:07:22.012Z,11.65
2023-01-17T09:09:49.373Z,13.57
2023-01-17T09:12:17.053Z,12.90
2023-01-17T09:14:44.406Z,14.32
2023-01-17T09:17:14.511Z,13.15
2023-01-17T09:19:47.868Z,14.30
2023-01-17T09:22:15.754Z,13.00
2023-01-17T09:24:43.075Z,11.25
2023-01-17T09:27:11.102Z,13.32
2023-01-17T09:29:38.287Z,11.63
2023-01-17T09:32:05.966Z,13.55
2023-01-17T09:34:39.584Z,14.50
2023-01-17T09:37:08.120Z,13.23
2023-01-17T09:39:35.900Z,14.25
2023-01-17T09:42:11.921Z,14.30
2023-01-17T09:44:46.835Z,12.65
2023-01-17T09:47:32.402Z,12.43
2023-01-17T09:50:09.048Z,12.98
2023-01-17T09:52:36.141Z,11.73
2023-01-17T09:55:07.969Z,13.05
2023-01-17T09:58:00.748Z,10.70
2023-01-17T10:00:51.064Z,11.57
2023-01-17T10:03:28.382Z,11.80
2023-01-17T10:06:04.159Z,12.75
2023-01-17T10:08:57.639Z,11.48
2023-01-17T10:11:49.375Z,12.25
2023-01-17T10:14:37.993Z,11.15
2023-01-17T10:17:20.973Z,12.38
2023-01-17T10:19:52.500Z,12.63
2023-01-17T10:22:49.506Z,13.63
2023-01-17T10:25:28.390Z,13.18
2023-01-17T10:28:00.630Z,13.60
2023-01-17T10:30:39.284Z,12.40
2023-01-17T10:33:32.577Z,12.77
2023-01-17T10:36:08.438Z,12.57
2023-01-17T10:38:42.363Z,13.00
2023-01-17T10:41:33.363Z,11.82
2023-01-17T10:44:12.290Z,11.63
2023-01-17T10:46:52.653Z,11.55
2023-01-17T10:49:24.957Z,14.27
2023-01-17T10:52:09.056Z,12.20
2023-01-17T10:54:55.519Z,11.32
2023-01-17T10:57:25.457Z,11.20
2023-01-17T10:59:56.056Z,12.68
2023-01-17T11:02:32.294Z,10.80
2023-01-17T11:05:11.591Z,11.05
2023-01-17T11:07:40.185Z,11.98
2023-01-17T11:10:37.328Z,10.45
2023-01-17T11:13:08.127Z,9.20
2023-01-17T11:15:40.018Z,11.25
2023-01-17T11:18:16.657Z,11.73
2023-01-17T11:20:44.342Z,10.02
2023-01-17T11:23:22.057Z,10.68
2023-01-17T11:25:52.854Z,10.82
2023-01-17T11:28:21.942Z,10.88
2023-01-17T11:30:58.710Z,11.98
2023-01-17T11:33:46.265Z,11.82
2023-01-17T11:36:30.864Z,11.50
2023-01-17T11:41:52.798Z,11.73
2023-01-17T11:44:26.489Z,11.85
2023-01-17T11:47:23.320Z,10.45
2023-01-17T11:49:51.784Z,11.98
2023-01-17T11:52:26.085Z,10.20
2023-01-17T11:54:55.454Z,11.57
2023-01-17T11:57:33.698Z,12.02
2023-01-17T12:00:04.223Z,9.93
2023-01-17T12:03:08.898Z,9.95
2023-01-17T12:06:00.505Z,10.63
2023-01-17T12:08:53.424Z,11.75
2023-01-17T12:12:14.752Z,9.95
2023-01-17T12:15:08.443Z,12.32
2023-01-17T12:17:59.379Z,10.32
2023-01-17T12:20:55.518Z,12.90
2023-01-17T12:23:25.581Z,12.60
2023-01-17T12:26:07.886Z,12.95
2023-01-17T12:28:50.433Z,11.98
2023-01-17T12:31:33.675Z,11.98
2023-01-17T12:34:05.419Z,11.60
2023-01-17T12:36:49.651Z,12.52
2023-01-17T12:39:23.001Z,11.98
2023-01-17T12:41:50.941Z,12.40
2023-01-17T12:44:23.757Z,13.45
2023-01-17T12:47:00.213Z,11.50
2023-01-17T12:49:53.084Z,11.80
2023-01-17T12:52:37.020Z,11.93
2023-01-17T12:55:11.961Z,10.82
2023-01-17T12:57:47.139Z,12.35
2023-01-17T13:00:21.456Z,12.23
2023-01-17T13:03:06.300Z,10.23
2023-01-17T13:05:41.110Z,11.20
2023-01-17T13:08:29.900Z,12.80
2023-01-17T13:11:11.630Z,12.77
2023-01-17T13:13:43.893Z,12.73
2023-01-17T13:16:25.384Z,11.68
2023-01-17T13:18:53.657Z,11.80
2023-01-17T13:21:36.478Z,11.25
2023-01-17T13:24:24.216Z,12.75
2023-01-17T13:26:51.432Z,10.18
2023-01-17T13:29:37.796Z,11.90
2023-01-17T13:32:23.572Z,11.68
2023-01-17T13:35:06.381Z,11.35
2023-01-17T13:37:33.640Z,10.95
2023-01-17T13:40:19.545Z,11.98
2023-01-17T13:43:02.605Z,12.23
2023-01-17T13:45:35.855Z,12.00
2023-01-17T13:48:12.096Z,11.10
2023-01-17T13:50:42.844Z,12.57
2023-01-17T13:53:39.735Z,12.02
2023-01-17T13:56:26.724Z,12.45
2023-01-17T13:59:05.635Z,12.82
2023-01-17T14:01:36.945Z,12.13
2023-01-17T14:04:14.822Z,12.90
2023-01-17T14:06:53.144Z,12.68
2023-01-17T14:09:23.523Z,12.73
2023-01-17T14:11:55.034Z,13.18
2023-01-17T14:14:41.314Z,12.88
2023-01-17T14:17:23.029Z,13.02
2023-01-17T14:20:01.380Z,11.95
2023-01-17T14:22:35.288Z,12.52
2023-01-17T14:25:17.767Z,12.25
2023-01-17T14:27:51.721Z,12.25
2023-01-17T14:30:28.254Z,11.73
2023-01-17T14:33:13.882Z,11.52
2023-01-17T14:35:51.697Z,13.20
2023-01-17T14:38:28.055Z,13.05
2023-01-17T14:41:08.452Z,11.55
2023-01-17T14:43:41.117Z,10.70
2023-01-17T14:46:24.719Z,12.00
2023-01-17T14:49:00.242Z,11.95
2023-01-17T14:51:28.476Z,11.60
2023-01-17T14:54:02.408Z,12.52
2023-01-17T14:56:32.290Z,12.63
2023-01-17T14:59:21.677Z,12.13
2023-01-17T15:02:08.001Z,10.70
2023-01-17T15:04:40.087Z,12.00
2023-01-17T15:07:15.163Z,11.63
2023-01-17T15:09:45.064Z,11.93
2023-01-17T15:12:19.735Z,12.23
2023-01-17T15:14:49.891Z,11.98
2023-01-17T15:17:24.573Z,10.80
2023-01-17T15:19:57.574Z,11.82
2023-01-17T15:22:31.841Z,11.75
2023-01-17T15:25:00.489Z,13.43
2023-01-17T15:27:29.112Z,11.43
2023-01-17T15:30:10.283Z,12.63
2023-01-17T15:32:38.859Z,12.27
2023-01-17T15:35:08.129Z,12.43
2023-01-17T15:37:42.977Z,11.30
2023-01-17T15:40:20.715Z,11.98
2023-01-17T15:42:54.836Z,11.57
2023-01-17T15:45:31.442Z,11.05
2023-01-17T15:48:18.667Z,12.05
2023-01-17T15:50:45.863Z,10.57
2023-01-17T15:53:32.281Z,11.90
2023-01-17T15:56:00.329Z,13.02
2023-01-17T15:58:30.698Z,12.00
2023-01-17T16:00:58.211Z,12.30
2023-01-17T16:03:31.069Z,13.65
2023-01-17T16:06:01.116Z,12.98
2023-01-17T16:08:32.933Z,13.00
2023-01-17T16:11:03.676Z,12.80
2023-01-17T16:13:38.793Z,13.52
2023-01-17T16:16:26.997Z,13.47
2023-01-17T16:19:02.455Z,12.82
2023-01-17T16:21:31.557Z,13.68
2023-01-17T16:24:00.203Z,14.20
2023-01-17T16:26:29.413Z,13.32
2023-01-17T16:28:57.584Z,13.40
2023-01-17T16:31:26.364Z,12.85
2023-01-17T16:33:56.701Z,12.70
2023-01-17T16:36:35.109Z,12.77
2023-01-17T16:39:02.630Z,12.23
2023-01-17T16:41:30.201Z,13.50
2023-01-17T16:44:05.548Z,13.20
2023-01-17T16:46:33.054Z,13.63
2023-01-17T16:49:01.226Z,13.63
2023-01-17T16:51:28.854Z,13.07
2023-01-17T16:53:56.932Z,12.70
2023-01-17T16:56:24.635Z,13.05
2023-01-17T16:58:53.367Z,13.00
2023-01-17T17:01:22.850Z,13.38
2023-01-17T17:03:50.675Z,14.65
2023-01-17T17:06:21.524Z,14.00
2023-01-17T17:08:52.433Z,13.75
2023-01-17T17:11:27.486Z,14.40
2023-01-17T17:13:57.447Z,13.73
2023-01-17T17:16:30.039Z,14.07
2023-01-17T17:19:02.729Z,14.35
2023-01-17T17:21:31.174Z,14.25
2023-01-17T17:24:00.369Z,13.85
2023-01-17T17:26:31.271Z,12.00
2023-01-17T17:28:58.698Z,13.73
2023-01-17T17:31:26.948Z,12.57
2023-01-17T17:33:59.198Z,13.10
2023-01-17T17:36:26.858Z,12.68
2023-01-17T17:38:58.509Z,12.77
2023-01-17T17:41:28.624Z,13.15
2023-01-17T17:43:56.626Z,13.23
2023-01-17T17:46:25.845Z,14.55
2023-01-17T17:48:54.301Z,12.90
2023-01-17T17:51:30.536Z,12.45
2023-01-17T17:54:02.333Z,12.80
2023-01-17T17:56:31.326Z,12.73
2023-01-17T17:59:00.114Z,14.25
2023-01-17T18:01:27.937Z,12.63
2023-01-17T18:03:57.523Z,13.05
2023-01-17T18:06:25.149Z,13.50
2023-01-17T18:08:52.774Z,11.82
2023-01-17T18:11:23.829Z,12.38
2023-01-17T18:13:53.106Z,12.35
2023-01-17T18:16:25.910Z,12.60
2023-01-17T18:18:55.513Z,13.88
2023-01-17T18:21:33.234Z,13.20
2023-01-17T18:24:03.000Z,12.27
2023-01-17T18:26:33.463Z,12.20
2023-01-17T18:29:01.746Z,13.50
2023-01-17T18:31:31.120Z,13.68
2023-01-17T18:34:00.699Z,13.77
2023-01-17T18:36:31.091Z,12.45
2023-01-17T18:38:58.761Z,11.63
2023-01-17T18:41:29.230Z,15.23
2023-01-17T18:43:57.142Z,14.55
2023-01-17T18:46:27.491Z,12.30
2023-01-17T18:48:59.151Z,12.70
2023-01-17T18:51:29.582Z,13.32
2023-01-17T18:53:58.110Z,15.25
2023-01-17T18:56:26.606Z,12.07
2023-01-17T18:58:53.800Z,13.75
2023-01-17T19:01:23.876Z,13.15
2023-01-17T19:03:53.687Z,13.10
2023-01-17T19:06:24.971Z,12.80
2023-01-17T19:08:52.915Z,12.35
2023-01-17T19:11:22.274Z,12.00
2023-01-17T19:13:51.131Z,12.95
2023-01-17T19:16:25.772Z,12.25
2023-01-17T19:18:54.667Z,11.68
2023-01-17T19:21:25.466Z,13.07
2023-01-17T19:23:54.451Z,12.77
2023-01-17T19:26:23.600Z,11.73
2023-01-17T19:28:51.254Z,12.23
2023-01-17T19:31:25.006Z,11.55
2023-01-17T19:33:54.803Z,12.23
2023-01-17T19:36:25.118Z,12.23
2023-01-17T19:39:04.116Z,13.02
2023-01-17T19:41:41.309Z,13.35
2023-01-17T19:44:10.720Z,14.18
2023-01-17T19:46:39.758Z,15.02
2023-01-17T19:49:08.571Z,13.95
2023-01-17T19:51:36.269Z,14.43
2023-01-17T19:54:05.242Z,13.27
2023-01-17T19:56:32.753Z,12.73
2023-01-17T19:59:03.153Z,13.27
2023-01-17T20:01:33.292Z,13.93
2023-01-17T20:04:02.490Z,13.15
2023-01-17T20:06:34.997Z,12.25
2023-01-17T20:09:05.906Z,13.75
2023-01-17T20:11:33.282Z,12.90
2023-01-17T20:14:00.606Z,13.63
2023-01-17T20:16:31.183Z,14.10
2023-01-17T20:18:59.534Z,14.70
2023-01-17T20:21:28.317Z,11.60
2023-01-17T20:23:57.478Z,14.15
2023-01-17T20:26:36.519Z,12.95
2023-01-17T20:29:21.831Z,11.85
2023-01-17T20:34:20.964Z,12.43
2023-01-17T20:36:49.229Z,13.00
2023-01-17T20:39:16.665Z,12.15
2023-01-17T20:41:52.124Z,13.48
2023-01-17T20:44:19.737Z,12.45
2023-01-17T20:46:50.407Z,14.25
2023-01-17T20:49:19.714Z,11.85
2023-01-17T20:51:48.208Z,12.10
2023-01-17T20:54:21.174Z,11.57
2023-01-17T20:56:48.421Z,12.23
2023-01-17T20:59:24.456Z,11.65
2023-01-17T21:01:52.228Z,11.27
2023-01-17T21:04:26.113Z,12.93
2023-01-17T21:06:53.728Z,12.95
2023-01-17T21:09:24.377Z,11.60
2023-01-17T21:11:51.948Z,13.73
2023-01-17T21:14:22.085Z,14.25
2023-01-17T21:16:50.700Z,12.55
2023-01-17T21:19:17.970Z,13.13
2023-01-17T21:21:45.646Z,11.75
2023-01-17T21:24:18.677Z,13.23
2023-01-17T21:26:47.629Z,12.23
2023-01-17T21:29:16.396Z,13.40
2023-01-17T21:31:45.170Z,13.50
2023-01-17T21:34:13.917Z,13.93
2023-01-17T21:36:43.831Z,13.75
2023-01-17T21:39:16.720Z,13.23
2023-01-17T21:41:48.361Z,12.30
2023-01-17T21:44:23.069Z,12.10
2023-01-17T21:46:56.346Z,12.50
2023-01-17T21:49:24.241Z,13.50
2023-01-17T21:51:52.614Z,13.10
2023-01-17T21:54:42.828Z,14.43
2023-01-17T21:57:29.482Z,12.85
2023-01-17T21:59:58.308Z,14.18
2023-01-17T22:02:25.534Z,13.93
2023-01-17T22:05:00.762Z,13.52
2023-01-17T22:07:29.300Z,12.90
2023-01-17T22:09:57.113Z,12.70
2023-01-17T22:12:24.285Z,13.85
2023-01-17T22:14:53.033Z,12.68
2023-01-17T22:17:21.387Z,13.63
2023-01-17T22:19:49.289Z,13.82
2023-01-17T22:22:16.616Z,13.70
2023-01-17T22:24:48.205Z,13.10
2023-01-17T22:27:15.617Z,14.80
2023-01-17T22:29:42.974Z,12.88
2023-01-17T22:32:11.509Z,14.15
2023-01-17T22:34:39.014Z,13.15
2023-01-17T22:37:10.273Z,13.13
2023-01-17T22:39:38.731Z,12.75
2023-01-17T22:42:06.319Z,14.57
2023-01-17T22:44:33.596Z,12.95
2023-01-17T22:47:02.136Z,13.57
2023-01-17T22:49:29.187Z,13.68
2023-01-17T22:51:57.578Z,13.90
2023-01-17T22:54:24.935Z,13.48
2023-01-17T22:56:52.016Z,13.25
2023-01-17T22:59:19.494Z,12.85
2023-01-17T23:01:48.948Z,12.75
2023-01-17T23:04:18.963Z,14.35
2023-01-17T23:06:46.142Z,14.43
2023-01-17T23:09:15.773Z,14.27
2023-01-17T23:11:47.471Z,13.95
2023-01-17T23:14:20.226Z,14.02
2023-01-17T23:17:12.863Z,14.43
2023-01-17T23:19:49.705Z,14.05
2023-01-17T23:22:20.608Z,12.07
2023-01-17T23:24:51.102Z,13.93
2023-01-17T23:27:41.320Z,14.50
2023-01-17T23:30:16.698Z,13.02
2023-01-17T23:32:50.052Z,12.50
2023-01-17T23:35:20.281Z,12.15
2023-01-17T23:38:06.264Z,12.80
2023-01-17T23:40:34.842Z,13.60
2023-01-17T23:43:21.131Z,12.88
2023-01-17T23:45:49.183Z,14.90
2023-01-17T23:48:16.901Z,13.20
2023-01-17T23:50:46.535Z,13.95
2023-01-17T23:53:22.575Z,15.45
2023-01-17T23:55:52.482Z,14.13
2023-01-17T23:58:21.835Z,14.43
